Time;durP1;ratioP1;P1;durP2;ratioP2;P2;SDS_P1;SDS_P2;PMS_P1;PMS_P2;Temp;Humidity;BMP_temperature;BMP_pressure;BME280_temperature;BME280_humidity;BME280_pressure;Samples;Min_cycle;Max_cycle;Signal;HPM_P1;HPM_P2
2021/08/05 00:00:52;;;;;;;;;;;;;;;17.34;96.41;99918.77;1694648;84;20257;-90
2021/08/05 00:03:19;;;;;;;;;;;;;;;17.48;95.92;99923.58;1693073;84;20547;-85
2021/08/05 00:05:47;;;;;;;;;;;;;;;17.52;95.63;99923.45;1690232;84;21262;-88
2021/08/05 00:08:12;;;;;;;;;;;;;;;17.52;95.58;99918.11;1690206;84;20222;-85
2021/08/05 00:10:38;;;;;;;;;;;;;;;17.64;95.09;99915.64;1688245;83;20127;-83
2021/08/05 00:13:04;;;;;;;;;;;;;;;17.67;94.37;99914.41;1690199;84;20390;-84
2021/08/05 00:15:30;;;;;;;;;;;;;;;17.65;94.48;99913.78;1693800;83;20466;-88
2021/08/05 00:18:00;;;;;;;;;;;;;;;17.67;94.27;99914.41;1665609;83;21242;-84
2021/08/05 00:20:27;;;;;;;;;;;;;;;17.69;94.18;99907.81;1687555;83;20180;-87
2021/08/05 00:22:53;;;;;;;;;;;;;;;17.76;93.96;99913.16;1689751;83;20186;-88
2021/08/05 00:25:19;;;;;;;;;;;;;;;17.80;93.76;99913.03;1691320;84;20264;-85
2021/08/05 00:27:45;;;;;;;;;;;;;;;17.77;93.44;99909.44;1663960;84;20202;-84
2021/08/05 00:30:14;;;;;;;;;;;;;;;17.59;93.77;99909.59;1684120;84;21134;-84
2021/08/05 00:32:41;;;;;;;;;;;;;;;17.48;94.19;99907.56;1657621;84;20141;-84
2021/08/05 00:35:09;;;;;;;;;;;;;;;17.38;95.29;99905.81;1663841;85;20165;-84
2021/08/05 00:37:35;;;;;;;;;;;;;;;17.36;95.39;99905.22;1658510;85;20496;-85
2021/08/05 00:40:01;;;;;;;;;;;;;;;17.29;95.99;99907.05;1660061;85;20484;-86
2021/08/05 00:42:26;;;;;;;;;;;;;;;17.27;96.00;99902.45;1681246;85;21101;-91
2021/08/05 00:44:52;;;;;;;;;;;;;;;17.18;96.46;99897.82;1679624;85;20213;-89
2021/08/05 00:47:23;;;;;;;;;;;;;;;17.12;97.07;99902.15;1680406;84;20237;-85
2021/08/05 00:49:53;;;;;;;;;;;;;;;17.13;97.18;99891.77;1680780;83;20156;-86
2021/08/05 00:52:19;;;;;;;;;;;;;;;17.12;97.35;99891.97;1676265;85;20499;-86
2021/08/05 00:54:47;;;;;;;;;;;;;;;17.07;97.47;99893.11;1677266;85;21007;-86
2021/08/05 00:57:13;;;;;;;;;;;;;;;17.01;97.45;99886.73;1676964;84;20139;-85
2021/08/05 00:59:38;;;;;;;;;;;;;;;17.01;97.40;99892.07;1678696;85;20381;-85
2021/08/05 01:02:13;;;;;;;;;;;;;;;17.05;97.32;99887.98;1677688;85;20182;-85
2021/08/05 01:04:38;;;;;;;;;;;;;;;17.10;97.13;99888.17;1661512;84;20520;-86
2021/08/05 01:07:11;;;;;;;;;;;;;;;17.09;96.76;99885.70;1678826;84;21102;-85
2021/08/05 01:09:57;;;;;;;;;;;;;;;17.06;96.77;99886.96;1676213;84;20151;-86
2021/08/05 01:12:44;;;;;;;;;;;;;;;17.01;96.74;99889.41;1679642;84;20202;-85
2021/08/05 01:15:18;;;;;;;;;;;;;;;17.08;96.58;99883.56;1676598;85;20686;-84
2021/08/05 01:17:51;;;;;;;;;;;;;;;17.05;96.19;99877.30;1681298;84;20948;-86
2021/08/05 01:20:18;;;;;;;;;;;;;;;17.08;96.23;99878.23;1679131;84;21065;-85
2021/08/05 01:22:50;;;;;;;;;;;;;;;16.99;97.00;99880.79;1682644;83;20209;-85
2021/08/05 01:25:33;;;;;;;;;;;;;;;16.88;97.46;99876.08;1663165;85;20135;-85
2021/08/05 01:27:59;;;;;;;;;;;;;;;16.77;97.98;99883.61;1676959;84;20209;-87
2021/08/05 01:30:27;;;;;;;;;;;;;;;16.67;98.68;99881.84;1676726;85;20171;-86
2021/08/05 01:32:56;;;;;;;;;;;;;;;16.63;99.20;99885.95;1682969;83;21721;-86
2021/08/05 01:35:25;;;;;;;;;;;;;;;16.54;100.00;99881.84;1660456;85;20570;-85
2021/08/05 01:37:51;;;;;;;;;;;;;;;16.46;100.00;99871.66;1680460;85;20159;-86
2021/08/05 01:40:17;;;;;;;;;;;;;;;16.41;100.00;99870.13;1681591;84;20270;-86
2021/08/05 01:42:44;;;;;;;;;;;;;;;16.31;100.00;99867.84;1623394;85;20188;-86
2021/08/05 01:45:13;;;;;;;;;;;;;;;16.33;100.00;99860.98;1682640;85;21118;-84
2021/08/05 01:47:40;;;;;;;;;;;;;;;16.33;100.00;99868.98;1669060;85;20151;-85
2021/08/05 01:50:07;;;;;;;;;;;;;;;16.26;100.00;99870.80;1679300;84;20182;-85
2021/08/05 01:52:34;;;;;;;;;;;;;;;16.18;100.00;99870.98;1681149;84;20550;-84
2021/08/05 01:55:02;;;;;;;;;;;;;;;16.23;100.00;99875.19;1679752;85;20479;-87
2021/08/05 01:57:28;;;;;;;;;;;;;;;16.26;100.00;99868.12;1682859;85;21183;-85
2021/08/05 01:59:53;;;;;;;;;;;;;;;16.36;100.00;99865.91;1666527;84;20156;-84
2021/08/05 02:02:24;;;;;;;;;;;;;;;16.38;100.00;99870.52;1683327;84;20213;-84
2021/08/05 02:05:08;;;;;;;;;;;;;;;16.40;100.00;99867.14;1677077;83;20155;-84
2021/08/05 02:07:54;;;;;;;;;;;;;;;16.43;99.91;99866.73;1675545;84;20730;-88
2021/08/05 02:10:40;;;;;;;;;;;;;;;16.48;99.69;99871.46;1675284;85;20088;-85
2021/08/05 02:13:12;;;;;;;;;;;;;;;16.51;99.21;99871.91;1666365;84;20653;-85
2021/08/05 02:15:43;;;;;;;;;;;;;;;16.48;99.21;99868.80;1678089;84;20642;-86
2021/08/05 02:18:09;;;;;;;;;;;;;;;16.51;99.02;99867.91;1665685;85;20164;-86
2021/08/05 02:20:35;;;;;;;;;;;;;;;16.51;98.87;99863.91;1678205;84;20203;-85
2021/08/05 02:23:00;;;;;;;;;;;;;;;16.49;99.06;99862.45;1661851;85;21764;-84
2021/08/05 02:25:26;;;;;;;;;;;;;;;16.33;99.25;99868.98;1678095;84;20419;-84
2021/08/05 02:27:53;;;;;;;;;;;;;;;16.23;99.70;99868.53;1678419;85;20150;-85
2021/08/05 02:30:20;;;;;;;;;;;;;;;16.13;100.00;99875.05;1652266;85;20148;-83
2021/08/05 02:32:47;;;;;;;;;;;;;;;16.14;100.00;99874.53;1681342;85;20141;-84
2021/08/05 02:35:16;;;;;;;;;;;;;;;16.06;100.00;99877.38;1663204;84;21171;-83
2021/08/05 02:37:42;;;;;;;;;;;;;;;16.06;100.00;99879.52;1675245;85;20214;-85
2021/08/05 02:40:08;;;;;;;;;;;;;;;16.08;100.00;99881.50;1680749;85;20409;-84
2021/08/05 02:42:36;;;;;;;;;;;;;;;16.06;100.00;99880.86;1676159;83;20207;-84
2021/08/05 02:45:01;;;;;;;;;;;;;;;16.03;100.00;99879.92;1674266;85;20175;-84
2021/08/05 02:47:27;;;;;;;;;;;;;;;16.03;100.00;99878.59;1678169;84;21081;-85
2021/08/05 02:49:56;;;;;;;;;;;;;;;15.99;100.00;99881.36;1681308;84;20130;-85
2021/08/05 02:52:22;;;;;;;;;;;;;;;15.98;100.00;99882.37;1675634;84;20162;-85
2021/08/05 02:54:47;;;;;;;;;;;;;;;15.97;100.00;99884.22;1677498;83;20419;-85
2021/08/05 02:57:17;;;;;;;;;;;;;;;15.88;100.00;99879.23;1677268;83;20167;-85
2021/08/05 02:59:44;;;;;;;;;;;;;;;15.96;100.00;99873.24;1676567;84;20270;-85
2021/08/05 03:02:13;;;;;;;;;;;;;;;16.12;100.00;99874.73;1676480;85;20184;-83
2021/08/05 03:04:39;;;;;;;;;;;;;;;16.09;100.00;99872.98;1675860;85;20222;-83
2021/08/05 03:07:08;;;;;;;;;;;;;;;16.07;100.00;99867.86;1675580;85;20225;-83
2021/08/05 03:09:33;;;;;;;;;;;;;;;16.13;100.00;99863.06;1672688;84;20599;-85
2021/08/05 03:11:59;;;;;;;;;;;;;;;16.05;99.94;99853.93;1676936;84;21303;-86
2021/08/05 03:14:25;;;;;;;;;;;;;;;16.14;99.69;99852.73;1678803;83;20167;-85
2021/08/05 03:16:51;;;;;;;;;;;;;;;16.13;99.40;99847.60;1673332;84;20222;-84
2021/08/05 03:19:17;;;;;;;;;;;;;;;16.07;99.29;99849.73;1679374;83;21395;-85
2021/08/05 03:21:45;;;;;;;;;;;;;;;15.88;100.00;99844.62;1666130;84;20436;-85
2021/08/05 03:24:10;;;;;;;;;;;;;;;15.88;100.00;99841.95;1664316;84;22789;-84
2021/08/05 03:26:36;;;;;;;;;;;;;;;15.81;100.00;99835.80;1679206;84;20198;-86
2021/08/05 03:29:07;;;;;;;;;;;;;;;15.83;100.00;99843.06;1681518;84;20320;-85
2021/08/05 03:31:36;;;;;;;;;;;;;;;15.73;100.00;99838.90;1679085;84;20216;-86
2021/08/05 03:34:04;;;;;;;;;;;;;;;15.71;100.00;99844.12;1677426;83;20286;-85
2021/08/05 03:36:33;;;;;;;;;;;;;;;15.64;100.00;99844.07;1679140;84;21859;-85
2021/08/05 03:38:59;;;;;;;;;;;;;;;15.63;100.00;99839.79;1676565;85;20253;-85
2021/08/05 03:41:24;;;;;;;;;;;;;;;15.65;100.00;99838.27;1678386;84;20124;-85
2021/08/05 03:43:52;;;;;;;;;;;;;;;15.57;100.00;99837.91;1680812;83;20141;-86
2021/08/05 03:46:17;;;;;;;;;;;;;;;15.64;100.00;99832.09;1679917;84;20175;-86
2021/08/05 03:48:43;;;;;;;;;;;;;;;15.86;100.00;99837.34;1675088;83;21038;-86
2021/08/05 03:51:10;;;;;;;;;;;;;;;15.87;100.00;99835.81;1659140;85;20330;-86
2021/08/05 03:53:36;;;;;;;;;;;;;;;15.93;100.00;99832.87;1679381;85;20205;-84
2021/08/05 03:56:03;;;;;;;;;;;;;;;16.06;99.75;99832.91;1677698;85;20431;-85
2021/08/05 03:58:29;;;;;;;;;;;;;;;16.12;100.00;99838.77;1682826;85;20183;-85
2021/08/05 04:00:55;;;;;;;;;;;;;;;16.17;99.17;99844.02;1661628;84;21157;-86
2021/08/05 04:03:20;;;;;;;;;;;;;;;16.10;99.12;99848.81;1678392;84;20530;-86
2021/08/05 04:05:48;;;;;;;;;;;;;;;16.15;99.20;99849.03;1680935;84;20189;-86
2021/08/05 04:08:14;;;;;;;;;;;;;;;16.31;99.10;99856.34;1682542;85;20186;-85
2021/08/05 04:10:41;;;;;;;;;;;;;;;16.42;98.67;99858.94;1664381;85;20136;-88
2021/08/05 04:13:08;;;;;;;;;;;;;;;16.54;98.07;99852.52;1681420;84;21245;-86
2021/08/05 04:15:34;;;;;;;;;;;;;;;16.32;97.88;99846.02;1679089;84;20172;-86
2021/08/05 04:18:00;;;;;;;;;;;;;;;16.28;98.74;99846.09;1677505;85;20399;-86
2021/08/05 04:20:25;;;;;;;;;;;;;;;16.28;99.29;99844.77;1679211;84;20511;-82
2021/08/05 04:22:53;;;;;;;;;;;;;;;16.36;99.11;99844.59;1679882;83;20222;-84
2021/08/05 04:25:20;;;;;;;;;;;;;;;16.36;99.11;99847.26;1684308;83;20330;-84
2021/08/05 04:27:46;;;;;;;;;;;;;;;16.46;99.40;99846.86;1690177;83;20247;-85
2021/08/05 04:30:12;;;;;;;;;;;;;;;16.39;98.93;99850.86;1680435;84;20184;-83
2021/08/05 04:32:39;;;;;;;;;;;;;;;16.35;98.98;99846.94;1683126;84;20174;-84
2021/08/05 04:35:05;;;;;;;;;;;;;;;16.32;99.13;99848.67;1678720;84;20246;-91
2021/08/05 04:37:31;;;;;;;;;;;;;;;16.35;99.32;99848.27;1653224;84;22071;-85
2021/08/05 04:39:56;;;;;;;;;;;;;;;16.39;99.47;99845.53;1651375;84;20445;-84
2021/08/05 04:42:23;;;;;;;;;;;;;;;16.43;98.28;99840.60;1683978;84;20142;-83
2021/08/05 04:44:49;;;;;;;;;;;;;;;16.39;98.74;99843.35;1676509;84;20196;-83
2021/08/05 04:47:15;;;;;;;;;;;;;;;16.47;98.87;99840.00;1680024;84;20630;-81
2021/08/05 04:49:44;;;;;;;;;;;;;;;16.65;98.51;99839.91;1681985;84;21064;-84
2021/08/05 04:52:09;;;;;;;;;;;;;;;16.70;98.12;99840.11;1684156;84;20124;-85
2021/08/05 04:54:38;;;;;;;;;;;;;;;16.72;97.73;99838.08;1679363;84;20245;-83
2021/08/05 04:57:05;;;;;;;;;;;;;;;16.71;97.45;99841.77;1681916;84;20400;-83
2021/08/05 04:59:31;;;;;;;;;;;;;;;16.68;97.52;99842.98;1679055;84;20167;-85
2021/08/05 05:01:56;;;;;;;;;;;;;;;16.85;97.21;99839.92;1682640;83;21176;-87
2021/08/05 05:04:23;;;;;;;;;;;;;;;16.85;96.94;99840.73;1683873;83;20143;-88
2021/08/05 05:06:48;;;;;;;;;;;;;;;16.97;96.43;99845.52;1679209;84;20212;-82
2021/08/05 05:09:14;;;;;;;;;;;;;;;17.02;96.43;99845.70;1679411;84;20134;-84
2021/08/05 05:11:40;;;;;;;;;;;;;;;17.11;96.11;99851.66;1679650;84;20538;-83
2021/08/05 05:14:05;;;;;;;;;;;;;;;17.08;95.51;99852.08;1682002;83;21041;-84
2021/08/05 05:16:31;;;;;;;;;;;;;;;16.99;96.02;99852.26;1679557;84;20148;-83
2021/08/05 05:18:58;;;;;;;;;;;;;;;16.93;96.60;99852.27;1682253;84;20239;-89
2021/08/05 05:21:25;;;;;;;;;;;;;;;16.86;97.24;99845.09;1680706;84;20147;-84
2021/08/05 05:23:55;;;;;;;;;;;;;;;16.87;97.71;99840.56;1679023;84;20216;-85
2021/08/05 05:26:21;;;;;;;;;;;;;;;16.97;97.51;99842.31;1676944;84;20256;-85
2021/08/05 05:28:48;;;;;;;;;;;;;;;17.08;97.70;99843.55;1675451;84;21086;-86
2021/08/05 05:31:16;;;;;;;;;;;;;;;17.12;97.01;99837.27;1680165;83;20471;-86
2021/08/05 05:33:43;;;;;;;;;;;;;;;17.20;97.05;99835.22;1659625;85;21318;-88
2021/08/05 05:36:09;;;;;;;;;;;;;;;17.27;96.67;99833.06;1676138;83;20187;-87
2021/08/05 05:38:36;;;;;;;;;;;;;;;17.31;96.36;99838.27;1673373;84;21130;-85
2021/08/05 05:41:02;;;;;;;;;;;;;;;17.36;96.17;99833.14;1675425;84;20140;-85
2021/08/05 05:43:37;;;;;;;;;;;;;;;17.46;95.50;99830.84;1677816;84;20170;-84
2021/08/05 05:46:05;;;;;;;;;;;;;;;17.47;95.92;99828.49;1673397;84;20529;-85
2021/08/05 05:48:30;;;;;;;;;;;;;;;17.59;95.82;99825.48;1676101;83;20174;-88
2021/08/05 05:50:56;;;;;;;;;;;;;;;17.75;95.74;99824.19;1676079;85;21850;-89
2021/08/05 05:53:25;;;;;;;;;;;;;;;17.94;94.54;99823.85;1674632;83;20206;-86
2021/08/05 05:55:52;;;;;;;;;;;;;;;18.06;94.34;99821.84;1660965;85;20441;-85
2021/08/05 05:58:18;;;;;;;;;;;;;;;18.11;94.08;99819.34;1673814;85;20200;-82
2021/08/05 06:00:43;;;;;;;;;;;;;;;18.14;93.76;99820.24;1679134;84;20261;-84
2021/08/05 06:03:09;;;;;;;;;;;;;;;18.25;93.05;99814.73;1677951;83;21108;-83
2021/08/05 06:05:36;;;;;;;;;;;;;;;18.29;92.61;99815.43;1679793;84;20183;-85
2021/08/05 06:08:02;;;;;;;;;;;;;;;18.42;92.99;99812.38;1676825;84;20139;-87
2021/08/05 06:10:30;;;;;;;;;;;;;;;18.40;91.78;99815.78;1677932;83;20175;-84
2021/08/05 06:12:55;;;;;;;;;;;;;;;18.30;92.83;99818.41;1678961;84;20174;-83
2021/08/05 06:15:21;;;;;;;;;;;;;;;18.41;92.49;99809.38;1676276;85;22100;-82
2021/08/05 06:17:46;;;;;;;;;;;;;;;18.29;92.76;99808.75;1676786;84;20163;-83
2021/08/05 06:20:13;;;;;;;;;;;;;;;18.26;93.16;99806.50;1671142;83;20186;-85
2021/08/05 06:22:39;;;;;;;;;;;;;;;18.24;93.18;99809.92;1641812;85;20150;-91
2021/08/05 06:25:06;;;;;;;;;;;;;;;18.27;93.48;99808.16;1649895;85;20668;-87
2021/08/05 06:27:32;;;;;;;;;;;;;;;18.36;92.62;99806.55;1646242;84;22359;-80
2021/08/05 06:29:58;;;;;;;;;;;;;;;18.41;92.62;99800.03;1646928;85;20151;-82
2021/08/05 06:32:25;;;;;;;;;;;;;;;18.40;92.11;99797.07;1648672;85;20139;-81
2021/08/05 06:34:50;;;;;;;;;;;;;;;18.38;93.15;99803.13;1647528;85;20178;-85
2021/08/05 06:37:17;;;;;;;;;;;;;;;18.43;92.13;99787.28;1646707;85;20154;-81
2021/08/05 06:39:42;;;;;;;;;;;;;;;18.55;91.57;99783.38;1651420;85;21999;-82
2021/08/05 06:42:08;;;;;;;;;;;;;;;18.55;92.08;99784.71;1638802;85;20335;-83
2021/08/05 06:44:36;;;;;;;;;;;;;;;18.51;92.05;99787.01;1654935;84;20769;-81
2021/08/05 06:47:05;;;;;;;;;;;;;;;18.45;92.17;99786.54;1644114;85;20659;-81
2021/08/05 06:49:35;;;;;;;;;;;;;;;18.62;91.40;99785.48;1642109;84;20191;-82
2021/08/05 06:52:03;;;;;;;;;;;;;;;18.57;91.79;99787.48;1641823;85;20154;-83
2021/08/05 06:54:28;;;;;;;;;;;;;;;18.78;91.22;99788.13;1647362;85;20458;-84
2021/08/05 06:56:54;;;;;;;;;;;;;;;18.68;90.83;99781.13;1636387;85;20386;-85
2021/08/05 06:59:21;;;;;;;;;;;;;;;18.78;90.85;99786.78;1645618;85;20135;-81
2021/08/05 07:01:47;;;;;;;;;;;;;;;18.88;90.10;99779.13;1645621;85;20226;-81
2021/08/05 07:04:14;;;;;;;;;;;;;;;18.96;89.34;99773.48;1649918;85;21179;-82
2021/08/05 07:06:39;;;;;;;;;;;;;;;19.09;88.89;99770.38;1656535;85;20104;-81
2021/08/05 07:09:05;;;;;;;;;;;;;;;19.11;88.52;99765.61;1644890;85;20170;-82
2021/08/05 07:11:30;;;;;;;;;;;;;;;19.19;87.36;99773.37;1625152;85;20623;-84
2021/08/05 07:13:59;;;;;;;;;;;;;;;19.27;87.59;99770.92;1621653;85;20146;-81
2021/08/05 07:16:26;;;;;;;;;;;;;;;19.19;86.86;99773.37;1641069;85;21926;-82
2021/08/05 07:18:52;;;;;;;;;;;;;;;19.07;87.57;99765.78;1644052;85;20242;-81
2021/08/05 07:21:20;;;;;;;;;;;;;;;19.07;87.19;99763.10;1662726;85;20567;-83
2021/08/05 07:23:45;;;;;;;;;;;;;;;19.11;87.07;99764.27;1678551;84;20206;-82
2021/08/05 07:26:11;;;;;;;;;;;;;;;19.01;87.30;99762.12;1679753;84;20159;-86
2021/08/05 07:28:39;;;;;;;;;;;;;;;19.06;87.20;99761.45;1677458;84;21055;-82
2021/08/05 07:31:05;;;;;;;;;;;;;;;19.24;86.11;99760.13;1681480;85;20118;-85
2021/08/05 07:33:31;;;;;;;;;;;;;;;19.33;85.35;99770.84;1680248;84;20179;-85
2021/08/05 07:35:58;;;;;;;;;;;;;;;19.27;84.93;99765.57;1678115;84;20135;-85
2021/08/05 07:38:24;;;;;;;;;;;;;;;19.37;83.68;99764.52;1677542;85;20135;-81
2021/08/05 07:40:49;;;;;;;;;;;;;;;19.45;84.23;99768.75;1676065;85;21186;-83
2021/08/05 07:43:15;;;;;;;;;;;;;;;19.38;84.02;99765.63;1678299;85;20124;-80
2021/08/05 07:45:41;;;;;;;;;;;;;;;19.44;83.28;99764.45;1675533;85;20299;-82
2021/08/05 07:48:07;;;;;;;;;;;;;;;19.44;83.89;99758.57;1679340;85;20233;-81
2021/08/05 07:50:32;;;;;;;;;;;;;;;19.61;83.04;99758.78;1680931;84;20499;-79
2021/08/05 07:52:58;;;;;;;;;;;;;;;19.69;83.00;99763.82;1684304;84;21082;-82
2021/08/05 07:55:25;;;;;;;;;;;;;;;19.81;82.36;99763.08;1682680;84;20466;-83
2021/08/05 07:57:54;;;;;;;;;;;;;;;19.83;82.04;99761.81;1681125;85;20219;-84
2021/08/05 08:00:21;;;;;;;;;;;;;;;19.87;80.62;99756.81;1661941;85;20242;-81
2021/08/05 08:02:50;;;;;;;;;;;;;;;19.87;81.56;99752.80;1681986;85;20204;-84
2021/08/05 08:05:16;;;;;;;;;;;;;;;19.90;81.18;99744.30;1682819;84;21171;-85
2021/08/05 08:07:44;;;;;;;;;;;;;;;20.00;79.81;99749.13;1676140;85;20215;-83
2021/08/05 08:10:10;;;;;;;;;;;;;;;20.03;79.67;99741.44;1680909;85;20168;-83
2021/08/05 08:12:36;;;;;;;;;;;;;;;20.13;78.79;99742.75;1680108;85;20176;-84
2021/08/05 08:15:05;;;;;;;;;;;;;;;20.13;78.68;99742.22;1679040;85;20816;-85
2021/08/05 08:17:32;;;;;;;;;;;;;;;20.08;79.23;99745.58;1684258;84;21838;-84
2021/08/05 08:19:58;;;;;;;;;;;;;;;20.09;79.67;99741.87;1679728;85;20163;-83
2021/08/05 08:22:26;;;;;;;;;;;;;;;20.06;79.15;99741.52;1678774;84;20191;-86
2021/08/05 08:24:55;;;;;;;;;;;;;;;19.92;80.29;99742.23;1684578;83;20194;-83
2021/08/05 08:27:22;;;;;;;;;;;;;;;19.96;80.61;99743.39;1681951;84;20175;-83
2021/08/05 08:29:50;;;;;;;;;;;;;;;19.93;81.02;99743.84;1656093;85;21835;-83
2021/08/05 08:32:18;;;;;;;;;;;;;;;19.95;80.98;99737.75;1679628;84;20647;-83
2021/08/05 08:34:44;;;;;;;;;;;;;;;19.87;81.74;99734.87;1659231;84;20147;-88
2021/08/05 08:37:09;;;;;;;;;;;;;;;19.86;82.21;99733.76;1685677;83;20122;-85
2021/08/05 08:39:35;;;;;;;;;;;;;;;19.87;81.91;99731.35;1682070;84;20792;-82
2021/08/05 08:42:00;;;;;;;;;;;;;;;19.83;82.77;99724.30;1683452;84;21880;-86
2021/08/05 08:44:31;;;;;;;;;;;;;;;19.83;82.55;99727.52;1681563;84;20776;-84
2021/08/05 08:46:58;;;;;;;;;;;;;;;19.85;82.24;99722.73;1678028;84;20175;-83
2021/08/05 08:49:24;;;;;;;;;;;;;;;19.92;82.53;99724.81;1682392;84;20207;-81
2021/08/05 08:51:49;;;;;;;;;;;;;;;19.94;81.98;99724.58;1680130;84;20814;-82
2021/08/05 08:54:19;;;;;;;;;;;;;;;20.00;82.05;99721.80;1681035;84;21031;-82
2021/08/05 08:56:47;;;;;;;;;;;;;;;20.04;82.08;99717.63;1678796;84;20087;-84
2021/08/05 08:59:13;;;;;;;;;;;;;;;19.98;81.83;99721.22;1683034;84;20452;-79
2021/08/05 09:01:42;;;;;;;;;;;;;;;20.11;81.39;99716.70;1649005;84;20167;-84
2021/08/05 09:04:07;;;;;;;;;;;;;;;20.21;80.77;99716.94;1680311;84;20203;-90
2021/08/05 09:06:34;;;;;;;;;;;;;;;20.15;80.87;99716.02;1674496;84;21140;-81
2021/08/05 09:08:59;;;;;;;;;;;;;;;20.18;80.79;99717.40;1678499;84;20305;-80
2021/08/05 09:11:25;;;;;;;;;;;;;;;20.13;80.88;99714.60;1676161;84;20185;-81
2021/08/05 09:13:52;;;;;;;;;;;;;;;20.04;81.62;99715.45;1678531;84;20473;-80
2021/08/05 09:16:28;;;;;;;;;;;;;;;20.01;82.73;99707.36;1673045;84;20190;-81
2021/08/05 09:18:57;;;;;;;;;;;;;;;19.93;83.72;99715.70;1680847;84;20577;-81
2021/08/05 09:21:26;;;;;;;;;;;;;;;19.96;83.89;99701.84;1654461;84;20188;-82
2021/08/05 09:24:12;;;;;;;;;;;;;;;19.98;83.91;99709.16;1658422;83;20179;-85
2021/08/05 09:26:47;;;;;;;;;;;;;;;19.85;84.70;99703.98;1683906;84;20122;-83
2021/08/05 09:29:18;;;;;;;;;;;;;;;19.81;84.63;99705.47;1656788;84;20544;-91
2021/08/05 09:31:54;;;;;;;;;;;;;;;19.90;84.67;99708.12;1687443;83;20548;-82
2021/08/05 09:34:26;;;;;;;;;;;;;;;19.94;84.25;99703.95;1684399;83;20918;-85
2021/08/05 09:37:00;;;;;;;;;;;;;;;20.03;84.50;99704.45;1683898;83;20215;-86
2021/08/05 09:39:30;;;;;;;;;;;;;;;20.21;83.87;99706.22;1661929;83;20160;-85
2021/08/05 09:42:06;;;;;;;;;;;;;;;20.06;84.46;99699.44;1681165;83;20528;-83
2021/08/05 09:44:43;;;;;;;;;;;;;;;20.13;85.09;99697.17;1656496;83;23545;-80
2021/08/05 09:47:12;;;;;;;;;;;;;;;20.08;85.24;99701.89;1686655;83;20592;-83
2021/08/05 09:49:54;;;;;;;;;;;;;;;20.00;85.12;99700.36;1658027;84;20127;-83
2021/08/05 09:52:32;;;;;;;;;;;;;;;19.95;86.27;99709.61;1683617;84;20166;-83
2021/08/05 09:55:02;;;;;;;;;;;;;;;19.99;86.60;99704.07;1685177;83;20355;-82
2021/08/05 09:57:32;;;;;;;;;;;;;;;20.18;85.90;99713.38;1682309;83;20766;-84
2021/08/05 10:00:02;;;;;;;;;;;;;;;20.17;86.04;99711.23;1685815;84;20213;-86
2021/08/05 10:02:46;;;;;;;;;;;;;;;20.13;86.25;99705.22;1684558;83;20666;-84
2021/08/05 10:05:23;;;;;;;;;;;;;;;20.16;85.62;99706.09;1683489;83;20218;-82
2021/08/05 10:07:56;;;;;;;;;;;;;;;20.19;86.06;99698.94;1688130;83;20217;-84
2021/08/05 10:10:26;;;;;;;;;;;;;;;20.23;86.45;99696.10;1682898;83;39310;-82
2021/08/05 10:12:58;;;;;;;;;;;;;;;20.21;86.89;99691.47;1686990;83;20134;-82
2021/08/05 10:15:26;;;;;;;;;;;;;;;20.38;86.23;99684.37;1683794;83;20187;-81
2021/08/05 10:17:53;;;;;;;;;;;;;;;20.36;87.25;99676.28;1684737;83;20195;-84
2021/08/05 10:20:20;;;;;;;;;;;;;;;20.48;86.68;99676.27;1684680;83;20163;-82
2021/08/05 10:22:45;;;;;;;;;;;;;;;20.49;86.24;99677.91;1681077;83;21013;-83
2021/08/05 10:25:13;;;;;;;;;;;;;;;20.47;86.90;99678.68;1683526;83;20214;-84
2021/08/05 10:27:39;;;;;;;;;;;;;;;20.39;86.55;99671.27;1684349;83;20150;-81
2021/08/05 10:30:09;;;;;;;;;;;;;;;20.34;86.96;99674.34;1652276;84;20100;-80
2021/08/05 10:32:35;;;;;;;;;;;;;;;20.16;89.04;99670.72;1685206;83;21011;-80
2021/08/05 10:35:01;;;;;;;;;;;;;;;20.25;87.88;99667.19;1683860;83;21073;-80
2021/08/05 10:37:29;;;;;;;;;;;;;;;20.23;88.86;99660.71;1680790;83;20559;-79
2021/08/05 10:39:56;;;;;;;;;;;;;;;20.33;88.82;99661.47;1686759;82;20191;-78
2021/08/05 10:42:22;;;;;;;;;;;;;;;20.36;87.82;99652.15;1640241;84;20247;-80
2021/08/05 10:44:48;;;;;;;;;;;;;;;20.42;87.29;99648.00;1681345;83;20132;-81
2021/08/05 10:47:16;;;;;;;;;;;;;;;20.48;87.21;99652.13;1681481;83;21963;-81
2021/08/05 10:49:45;;;;;;;;;;;;;;;20.53;86.76;99653.61;1660616;84;20147;-81
2021/08/05 10:52:31;;;;;;;;;;;;;;;20.72;86.57;99661.83;1678154;84;20783;-85
2021/08/05 10:55:00;;;;;;;;;;;;;;;20.63;86.11;99663.20;1682468;83;20184;-84
2021/08/05 10:57:26;;;;;;;;;;;;;;;20.56;86.28;99657.16;1676563;83;20225;-86
2021/08/05 11:00:00;;;;;;;;;;;;;;;20.49;86.83;99664.50;1656538;84;21095;-86
2021/08/05 11:02:55;;;;;;;;;;;;;;;20.53;87.40;99663.00;1683196;83;20223;-86
2021/08/05 11:05:24;;;;;;;;;;;;;;;20.48;86.84;99669.56;1683355;83;20126;-85
2021/08/05 11:08:09;;;;;;;;;;;;;;;20.39;86.05;99668.58;1677953;83;20123;-83
2021/08/05 11:10:37;;;;;;;;;;;;;;;20.42;86.37;99676.16;1673879;83;20179;-82
2021/08/05 11:13:23;;;;;;;;;;;;;;;20.53;86.10;99681.77;1653286;84;21362;-87
2021/08/05 11:15:46;;;;;;;;;;;;;;;20.47;85.68;99684.05;1683955;84;20532;-85
2021/08/05 11:18:18;;;;;;;;;;;;;;;20.62;85.21;99676.35;1679828;84;20215;-84
2021/08/05 11:20:53;;;;;;;;;;;;;;;20.65;84.98;99674.57;1672935;84;20178;-82
2021/08/05 11:23:31;;;;;;;;;;;;;;;20.73;84.05;99678.23;1670906;83;20199;-84
2021/08/05 11:26:02;;;;;;;;;;;;;;;20.71;83.44;99668.27;1673757;84;20151;-81
2021/08/05 11:28:47;;;;;;;;;;;;;;;20.74;83.98;99673.16;1670160;84;20473;-85
2021/08/05 11:31:29;;;;;;;;;;;;;;;20.61;83.97;99666.66;1668200;84;20156;-82
2021/08/05 11:33:59;;;;;;;;;;;;;;;20.50;83.83;99658.09;1672548;84;20185;-83
2021/08/05 11:36:30;;;;;;;;;;;;;;;20.45;83.37;99658.80;1672352;84;20174;-84
2021/08/05 11:39:27;;;;;;;;;;;;;;;20.47;84.30;99669.30;1670429;84;21208;-80
2021/08/05 11:42:03;;;;;;;;;;;;;;;20.43;84.89;99659.03;1671584;83;20151;-81
2021/08/05 11:44:47;;;;;;;;;;;;;;;20.47;85.08;99658.03;1675934;84;20111;-81
2021/08/05 11:47:15;;;;;;;;;;;;;;;20.51;85.92;99654.34;1672176;84;20219;-80
2021/08/05 11:49:57;;;;;;;;;;;;;;;20.64;85.55;99654.12;1670813;83;20176;-81
2021/08/05 11:52:32;;;;;;;;;;;;;;;20.65;83.88;99654.45;1675432;83;21366;-81
2021/08/05 11:55:07;;;;;;;;;;;;;;;20.57;83.42;99648.88;1669858;83;20152;-80
2021/08/05 11:57:39;;;;;;;;;;;;;;;20.45;83.37;99640.02;1671788;84;20206;-80
2021/08/05 12:00:11;;;;;;;;;;;;;;;20.38;83.28;99638.78;1649625;85;20174;-79
2021/08/05 12:02:37;;;;;;;;;;;;;;;20.43;83.74;99636.73;1623637;85;20163;-80
2021/08/05 12:05:03;;;;;;;;;;;;;;;20.32;84.01;99631.66;1624352;85;22019;-81
2021/08/05 12:07:37;;;;;;;;;;;;;;;20.29;84.71;99633.50;1623591;86;20272;-81
2021/08/05 12:10:14;;;;;;;;;;;;;;;20.25;84.60;99635.01;1647509;85;20210;-80
2021/08/05 12:12:56;;;;;;;;;;;;;;;20.22;83.99;99630.11;1649347;85;20128;-80
2021/08/05 12:15:41;;;;;;;;;;;;;;;20.34;84.12;99623.39;1650770;85;20210;-81
2021/08/05 12:18:13;;;;;;;;;;;;;;;20.22;84.28;99630.91;1650443;85;20183;-80
2021/08/05 12:20:40;;;;;;;;;;;;;;;20.22;83.84;99628.23;1650732;85;20154;-80
2021/08/05 12:23:42;;;;;;;;;;;;;;;20.37;83.57;99622.42;1640142;85;20200;-78
2021/08/05 12:26:02;;;;;;;;;;;;;;;20.38;83.56;99618.67;1626568;86;20152;-81
2021/08/05 12:28:22;;;;;;;;;;;;;;;20.35;83.71;99608.94;1633127;85;20166;-83
2021/08/05 12:30:53;;;;;;;;;;;;;;;20.38;83.41;99609.28;1634679;85;20520;-82
2021/08/05 12:33:30;;;;;;;;;;;;;;;20.25;83.98;99605.52;1615399;86;20282;-83
2021/08/05 12:36:04;;;;;;;;;;;;;;;20.32;84.10;99603.52;1635037;86;20175;-84
2021/08/05 12:38:30;;;;;;;;;;;;;;;20.34;83.56;99604.11;1634794;86;20187;-83
2021/08/05 12:40:56;;;;;;;;;;;;;;;20.29;84.01;99604.52;1609967;86;20328;-84
2021/08/05 12:43:25;;;;;;;;;;;;;;;20.14;84.43;99598.30;1612488;86;21044;-84
2021/08/05 12:45:50;;;;;;;;;;;;;;;20.14;83.76;99592.39;1632137;86;20172;-83
2021/08/05 12:48:17;;;;;;;;;;;;;;;20.10;84.06;99585.86;1632043;87;20184;-86
2021/08/05 12:50:46;;;;;;;;;;;;;;;20.06;84.90;99586.05;1635952;86;20642;-85
2021/08/05 12:53:28;;;;;;;;;;;;;;;20.05;84.90;99579.86;1634994;86;20228;-84